createdAt,value
2018-05-26T00:01:28.241Z,72.50
2018-05-26T00:03:56.566Z,71.20
2018-05-26T00:06:25.419Z,70.60
2018-05-26T00:08:53.908Z,70.70
2018-05-26T00:11:22.169Z,76.60
2018-05-26T00:13:50.427Z,73.70
2018-05-26T00:16:19.745Z,77.10
2018-05-26T00:18:47.997Z,77.00
2018-05-26T00:21:17.016Z,76.00
2018-05-26T00:23:45.297Z,76.80
2018-05-26T00:26:13.555Z,75.10
2018-05-26T00:28:42.154Z,75.90
2018-05-26T00:31:11.285Z,74.70
2018-05-26T00:33:39.561Z,77.90
2018-05-26T00:36:07.831Z,85.50
2018-05-26T00:38:36.153Z,84.80
2018-05-26T00:41:04.424Z,81.30
2018-05-26T00:43:32.676Z,80.80
2018-05-26T00:46:00.962Z,84.90
2018-05-26T00:48:29.208Z,86.90
2018-05-26T00:50:57.509Z,84.70
2018-05-26T00:53:26.385Z,80.40
2018-05-26T00:55:55.444Z,84.50
2018-05-26T00:58:23.704Z,89.20
2018-05-26T01:00:51.980Z,84.10
2018-05-26T01:03:20.240Z,83.70
2018-05-26T01:05:48.506Z,88.80
2018-05-26T01:08:16.791Z,90.00
2018-05-26T01:10:45.044Z,90.40
2018-05-26T01:13:13.305Z,90.70
2018-05-26T01:15:41.889Z,86.30
2018-05-26T01:18:10.149Z,90.20
2018-05-26T01:20:38.600Z,87.70
2018-05-26T01:23:06.881Z,86.10
2018-05-26T01:25:35.141Z,86.00
2018-05-26T01:28:03.405Z,90.50
2018-05-26T01:30:32.660Z,89.30
2018-05-26T01:33:00.936Z,89.30
2018-05-26T01:35:29.189Z,85.90
2018-05-26T01:37:58.276Z,85.10
2018-05-26T01:40:27.302Z,86.60
2018-05-26T01:42:55.566Z,86.70
2018-05-26T01:45:23.851Z,86.70
2018-05-26T01:47:52.680Z,90.40
2018-05-26T01:50:20.947Z,90.70
2018-05-26T01:52:49.237Z,90.40
2018-05-26T01:55:18.254Z,86.80
2018-05-26T01:57:46.518Z,86.80
2018-05-26T02:00:15.268Z,89.20
2018-05-26T02:02:43.554Z,89.40
2018-05-26T02:05:11.813Z,87.10
2018-05-26T02:07:40.361Z,91.30
2018-05-26T02:10:09.392Z,90.60
2018-05-26T02:12:37.902Z,90.60
2018-05-26T02:15:07.720Z,91.70
2018-05-26T02:17:36.019Z,91.60
2018-05-26T02:20:04.854Z,90.50
2018-05-26T02:22:33.193Z,89.70
2018-05-26T02:25:01.457Z,91.80
2018-05-26T02:27:29.712Z,94.40
2018-05-26T02:29:58.000Z,91.80
2018-05-26T02:32:26.622Z,90.70
2018-05-26T02:34:54.880Z,90.10
2018-05-26T02:37:23.164Z,93.80
2018-05-26T02:39:51.421Z,93.30
2018-05-26T02:42:19.676Z,93.00
2018-05-26T02:44:48.005Z,93.10
2018-05-26T02:47:16.278Z,91.00
2018-05-26T02:49:45.297Z,90.90
2018-05-26T02:52:13.788Z,90.90
2018-05-26T02:54:42.048Z,92.20
2018-05-26T02:57:10.466Z,90.80
2018-05-26T02:59:39.473Z,91.20
2018-05-26T03:02:07.725Z,91.20
2018-05-26T03:04:42.050Z,91.10
2018-05-26T03:07:16.062Z,91.90
2018-05-26T03:09:50.096Z,94.20
2018-05-26T03:12:23.999Z,95.50
2018-05-26T03:14:51.791Z,95.60
2018-05-26T03:17:21.744Z,94.10
2018-05-26T03:19:50.005Z,94.10
2018-05-26T03:22:18.529Z,92.80
2018-05-26T03:24:46.787Z,93.50
2018-05-26T03:27:15.085Z,96.40
2018-05-26T03:29:43.600Z,98.30
2018-05-26T03:32:12.841Z,97.90
2018-05-26T03:34:41.244Z,98.00
2018-05-26T03:37:09.548Z,97.20
2018-05-26T03:39:37.797Z,94.30
2018-05-26T03:42:06.052Z,94.40
2018-05-26T03:44:34.548Z,95.20
2018-05-26T03:47:02.808Z,93.80
2018-05-26T03:49:31.069Z,95.50
2018-05-26T03:51:59.353Z,96.10
2018-05-26T03:54:53.304Z,96.20
2018-05-26T03:57:33.277Z,96.90
2018-05-26T04:00:17.200Z,99.60
2018-05-26T04:02:45.732Z,97.20
2018-05-26T04:05:13.988Z,96.90
2018-05-26T04:07:42.267Z,96.80
2018-05-26T04:10:10.562Z,99.90
2018-05-26T04:12:38.813Z,99.70
2018-05-26T04:15:07.081Z,99.70
2018-05-26T04:17:35.381Z,96.70
2018-05-26T04:20:03.642Z,98.60
2018-05-26T04:22:31.909Z,97.80
2018-05-26T04:25:00.521Z,97.40
2018-05-26T04:27:28.777Z,99.00
2018-05-26T04:29:57.208Z,97.00
2018-05-26T04:32:25.936Z,97.70
2018-05-26T04:34:54.633Z,96.10
2018-05-26T04:37:22.877Z,96.30
2018-05-26T04:39:51.169Z,99.00
2018-05-26T04:42:19.429Z,96.90
2018-05-26T04:44:48.452Z,97.30
2018-05-26T04:47:17.170Z,97.20
2018-05-26T04:49:45.432Z,97.70
2018-05-26T04:52:14.285Z,96.30
2018-05-26T04:54:42.572Z,96.10
2018-05-26T04:57:10.844Z,96.20
2018-05-26T04:59:39.091Z,97.50
2018-05-26T05:02:07.944Z,96.10
2018-05-26T05:04:36.197Z,95.90
2018-05-26T05:07:04.456Z,96.70
2018-05-26T05:09:34.109Z,97.00
2018-05-26T05:12:02.376Z,97.00
2018-05-26T05:14:30.631Z,97.20
2018-05-26T05:17:00.268Z,96.90
2018-05-26T05:19:28.516Z,96.20
2018-05-26T05:21:56.776Z,96.20
2018-05-26T05:24:25.066Z,96.70
2018-05-26T05:26:53.338Z,97.20
2018-05-26T05:29:21.603Z,96.10
2018-05-26T05:31:50.176Z,97.30
2018-05-26T05:34:19.217Z,96.20
2018-05-26T05:36:48.976Z,96.20
2018-05-26T05:39:17.269Z,96.60
2018-05-26T05:41:45.524Z,96.80
2018-05-26T05:44:13.792Z,97.40
2018-05-26T05:46:42.076Z,96.40
2018-05-26T05:49:10.353Z,96.10
2018-05-26T05:51:39.376Z,97.90
2018-05-26T05:54:08.013Z,97.90
2018-05-26T05:56:36.348Z,96.40
2018-05-26T05:59:04.693Z,96.00
2018-05-26T06:01:32.844Z,95.90
2018-05-26T06:04:01.185Z,95.90
2018-05-26T06:06:29.441Z,96.50
2018-05-26T06:08:57.733Z,96.30
2018-05-26T06:11:25.993Z,96.80
2018-05-26T06:13:55.908Z,96.90
2018-05-26T06:16:25.277Z,96.10
2018-05-26T06:18:53.539Z,96.10
2018-05-26T06:21:21.793Z,95.90
2018-05-26T06:23:50.073Z,96.30
2018-05-26T06:26:18.380Z,95.40
2018-05-26T06:28:46.620Z,95.40
2018-05-26T06:31:14.902Z,95.90
2018-05-26T06:33:43.176Z,95.50
2018-05-26T06:36:11.435Z,95.90
2018-05-26T06:38:40.465Z,95.50
2018-05-26T06:41:08.726Z,95.60
2018-05-26T06:43:36.985Z,95.60
2018-05-26T06:46:05.319Z,95.80
2018-05-26T06:48:33.556Z,96.40
2018-05-26T06:51:01.820Z,95.50
2018-05-26T06:53:30.090Z,95.40
2018-05-26T06:55:58.344Z,95.60
2018-05-26T06:58:26.622Z,95.00
2018-05-26T07:00:56.701Z,95.50
2018-05-26T07:03:24.943Z,95.40
2018-05-26T07:05:53.208Z,94.70
2018-05-26T07:08:21.765Z,94.60
2018-05-26T07:10:50.011Z,94.10
2018-05-26T07:13:18.275Z,94.10
2018-05-26T07:15:46.532Z,93.90
2018-05-26T07:18:16.068Z,93.80
2018-05-26T07:20:46.516Z,93.60
2018-05-26T07:23:15.018Z,93.60
2018-05-26T07:25:45.521Z,93.40
2018-05-26T07:28:13.774Z,93.30
2018-05-26T07:30:42.045Z,93.10
2018-05-26T07:33:10.293Z,92.60
2018-05-26T07:35:38.552Z,92.80
2018-05-26T07:38:06.819Z,93.20
2018-05-26T07:40:35.338Z,93.10
2018-05-26T07:43:04.344Z,92.70
2018-05-26T07:45:32.757Z,92.70
2018-05-26T07:48:01.001Z,92.90
2018-05-26T07:50:29.252Z,93.00
2018-05-26T07:52:57.551Z,92.10
2018-05-26T07:55:26.555Z,92.10
2018-05-26T07:57:54.810Z,92.10
2018-05-26T08:00:23.664Z,91.80
2018-05-26T08:02:51.926Z,91.70
2018-05-26T08:05:20.171Z,91.20
2018-05-26T08:07:48.592Z,91.00
2018-05-26T08:10:16.912Z,90.80
2018-05-26T08:12:45.161Z,90.60
2018-05-26T08:15:13.685Z,90.50
2018-05-26T08:17:41.944Z,90.40
2018-05-26T08:20:10.952Z,90.10
2018-05-26T08:22:39.233Z,90.10
2018-05-26T08:25:07.490Z,89.80
2018-05-26T08:27:36.472Z,89.20
2018-05-26T08:30:05.101Z,89.60
2018-05-26T08:32:33.350Z,88.40
2018-05-26T08:35:01.596Z,88.70
2018-05-26T08:37:29.881Z,88.50
2018-05-26T08:39:58.890Z,89.20
2018-05-26T08:42:28.498Z,88.50
2018-05-26T08:44:57.539Z,86.80
2018-05-26T08:47:25.785Z,86.80
2018-05-26T08:49:54.029Z,87.60
2018-05-26T08:52:22.672Z,87.10
2018-05-26T08:54:50.982Z,85.90
2018-05-26T08:57:19.168Z,84.90
2018-05-26T08:59:47.465Z,85.00
2018-05-26T09:02:15.772Z,84.60
2018-05-26T09:04:44.065Z,82.80
2018-05-26T09:07:12.328Z,82.60
2018-05-26T09:09:40.569Z,83.70
2018-05-26T09:12:09.084Z,83.10
2018-05-26T09:14:37.774Z,83.80
2018-05-26T09:17:06.035Z,83.70
2018-05-26T09:19:34.468Z,81.00
2018-05-26T09:22:02.860Z,80.90
2018-05-26T09:24:31.884Z,81.30
2018-05-26T09:27:00.129Z,81.20
2018-05-26T09:29:28.404Z,81.00
2018-05-26T09:31:56.645Z,80.00
2018-05-26T09:34:25.041Z,78.50
2018-05-26T09:36:53.497Z,77.50
2018-05-26T09:39:22.720Z,74.90
2018-05-26T09:41:51.149Z,76.20
2018-05-26T09:44:21.000Z,76.00
2018-05-26T09:46:49.404Z,77.00
2018-05-26T09:49:17.650Z,75.80
2018-05-26T09:51:45.927Z,75.10
2018-05-26T09:54:14.216Z,73.60
2018-05-26T09:56:42.637Z,73.40
2018-05-26T09:59:11.782Z,74.10
2018-05-26T10:01:40.033Z,74.00
2018-05-26T10:04:08.904Z,72.20
2018-05-26T10:06:37.164Z,71.90
2018-05-26T10:09:05.420Z,73.10
2018-05-26T10:11:33.672Z,70.60
2018-05-26T10:14:02.744Z,69.40
2018-05-26T10:16:31.072Z,69.30
2018-05-26T10:19:00.473Z,70.90
2018-05-26T10:21:29.232Z,70.70
2018-05-26T10:23:57.473Z,68.10
2018-05-26T10:26:25.919Z,69.40
2018-05-26T10:28:54.224Z,67.70
2018-05-26T10:31:22.473Z,69.90
2018-05-26T10:33:52.897Z,68.00
2018-05-26T10:36:21.440Z,67.10
2018-05-26T10:38:50.337Z,67.10
2018-05-26T10:41:18.659Z,66.80
2018-05-26T10:43:48.119Z,65.70
2018-05-26T10:46:26.120Z,63.70
2018-05-26T10:48:54.576Z,62.50
2018-05-26T10:51:22.840Z,62.40
2018-05-26T10:53:51.141Z,63.10
2018-05-26T10:56:20.689Z,62.70
2018-05-26T10:58:48.936Z,61.80
2018-05-26T11:01:17.360Z,60.80
2018-05-26T11:03:46.116Z,59.80
2018-05-26T11:06:14.378Z,59.90
2018-05-26T11:08:42.796Z,59.60
2018-05-26T11:11:11.079Z,59.20
2018-05-26T11:13:39.328Z,59.90
2018-05-26T11:16:08.718Z,56.70
2018-05-26T11:18:36.833Z,54.80
2018-05-26T11:21:05.341Z,57.20
2018-05-26T11:23:35.475Z,49.00
2018-05-26T11:26:03.912Z,48.80
2018-05-26T11:28:32.178Z,47.10
2018-05-26T11:31:00.976Z,49.90
2018-05-26T11:33:29.412Z,49.40
2018-05-26T11:35:57.740Z,49.80
2018-05-26T11:38:26.308Z,42.70
2018-05-26T11:40:55.777Z,39.30
2018-05-26T11:43:24.405Z,38.90
2018-05-26T11:45:52.784Z,39.40
2018-05-26T11:48:21.464Z,41.20
2018-05-26T11:50:49.693Z,42.00
2018-05-26T11:53:19.572Z,43.80
2018-05-26T11:55:47.831Z,43.10
2018-05-26T11:58:17.165Z,44.60
2018-05-26T12:00:47.358Z,43.70
2018-05-26T12:03:16.697Z,43.70
2018-05-26T12:05:45.697Z,45.00
2018-05-26T12:08:14.037Z,45.00
2018-05-26T12:10:42.840Z,44.70
2018-05-26T12:13:11.445Z,44.10
2018-05-26T12:15:40.521Z,43.10
2018-05-26T12:18:09.777Z,42.80
2018-05-26T12:20:38.128Z,42.70
2018-05-26T12:23:06.460Z,43.50
2018-05-26T12:25:34.875Z,39.00
2018-05-26T12:28:03.912Z,38.90
2018-05-26T12:30:32.232Z,38.90
2018-05-26T12:33:01.687Z,39.90
2018-05-26T12:35:30.001Z,41.70
2018-05-26T12:37:58.414Z,42.50
2018-05-26T12:40:26.725Z,44.90
2018-05-26T12:42:55.028Z,42.70
2018-05-26T12:45:23.775Z,40.80
2018-05-26T12:47:52.820Z,35.40
2018-05-26T12:50:21.064Z,35.40
2018-05-26T12:52:49.321Z,37.20
2018-05-26T12:55:18.012Z,38.30
2018-05-26T12:57:46.865Z,39.20
2018-05-26T13:00:15.891Z,39.80
2018-05-26T13:02:44.237Z,39.70
2018-05-26T13:05:13.333Z,38.90
2018-05-26T13:07:41.924Z,38.70
2018-05-26T13:10:10.998Z,39.90
2018-05-26T13:12:39.244Z,39.10
2018-05-26T13:15:07.649Z,38.90
2018-05-26T13:17:35.977Z,38.80
2018-05-26T13:20:04.397Z,37.50
2018-05-26T13:22:32.979Z,41.00
2018-05-26T13:25:03.329Z,39.10
2018-05-26T13:27:32.696Z,37.50
2018-05-26T13:30:03.257Z,37.00
2018-05-26T13:32:31.540Z,34.10
2018-05-26T13:35:00.549Z,29.80
2018-05-26T13:37:30.181Z,31.00
2018-05-26T13:39:58.895Z,31.00
2018-05-26T13:42:27.186Z,29.80
2018-05-26T13:44:55.625Z,29.30
2018-05-26T13:47:23.968Z,29.70
2018-05-26T13:49:54.175Z,31.90
2018-05-26T13:52:23.827Z,31.80
2018-05-26T13:54:53.118Z,34.80
2018-05-26T13:57:23.311Z,30.90
2018-05-26T13:59:52.331Z,33.40
2018-05-26T14:02:22.910Z,33.50
2018-05-26T14:04:51.227Z,33.40
2018-05-26T14:07:19.584Z,33.00
2018-05-26T14:09:47.881Z,33.20
2018-05-26T14:12:16.349Z,30.50
2018-05-26T14:14:44.884Z,30.90
2018-05-26T14:17:13.882Z,31.20
2018-05-26T14:19:42.588Z,31.90
2018-05-26T14:22:11.173Z,32.30
2018-05-26T14:24:39.565Z,33.00
2018-05-26T14:27:07.849Z,33.70
2018-05-26T14:29:39.364Z,34.10
2018-05-26T14:32:07.780Z,34.90
2018-05-26T14:34:36.569Z,34.40
2018-05-26T14:37:06.008Z,35.00
2018-05-26T14:39:35.052Z,35.10
2018-05-26T14:42:03.340Z,35.00
2018-05-26T14:44:32.465Z,35.20
2018-05-26T14:47:02.216Z,35.60
2018-05-26T14:49:31.193Z,34.90
2018-05-26T14:52:10.727Z,33.40
2018-05-26T14:57:39.456Z,32.30
2018-05-26T15:00:07.777Z,33.00
2018-05-26T15:02:37.105Z,32.60
2018-05-26T15:05:05.521Z,31.80
2018-05-26T15:07:34.740Z,32.90
2018-05-26T15:10:03.120Z,30.20
2018-05-26T15:12:31.532Z,30.50
2018-05-26T15:15:01.725Z,31.70
2018-05-26T15:17:31.033Z,31.60
2018-05-26T15:20:00.092Z,32.20
2018-05-26T15:22:28.400Z,32.50
2018-05-26T15:24:57.703Z,33.10
2018-05-26T15:27:26.778Z,33.60
2018-05-26T15:29:55.064Z,34.00
2018-05-26T15:32:23.636Z,34.30
2018-05-26T15:34:51.931Z,34.70
2018-05-26T15:37:20.196Z,34.80
2018-05-26T15:39:48.444Z,35.10
2018-05-26T15:42:16.737Z,35.00
2018-05-26T15:44:45.254Z,35.70
2018-05-26T15:47:14.028Z,36.40
2018-05-26T15:49:43.072Z,36.20
2018-05-26T15:52:13.259Z,36.10
2018-05-26T15:54:41.628Z,36.00
2018-05-26T15:57:10.787Z,35.90
2018-05-26T15:59:39.519Z,36.70
2018-05-26T16:02:07.740Z,36.10
2018-05-26T16:04:36.132Z,34.30
2018-05-26T16:07:04.496Z,34.70
2018-05-26T16:09:32.833Z,34.00
2018-05-26T16:12:02.276Z,33.50
2018-05-26T16:14:30.611Z,32.90
2018-05-26T16:16:58.888Z,33.60
2018-05-26T16:19:28.220Z,34.30
2018-05-26T16:21:56.577Z,32.70
2018-05-26T16:24:24.990Z,33.00
2018-05-26T16:26:53.268Z,34.30
2018-05-26T16:29:21.689Z,34.00
2018-05-26T16:31:50.228Z,33.70
2018-05-26T16:34:18.973Z,33.70
2018-05-26T16:36:47.219Z,33.20
2018-05-26T16:39:15.624Z,32.30
2018-05-26T16:41:44.892Z,31.90
2018-05-26T16:44:13.302Z,32.60
2018-05-26T16:46:41.593Z,30.50
2018-05-26T16:49:11.568Z,30.50
2018-05-26T16:51:39.889Z,30.80
2018-05-26T16:54:08.261Z,30.10
2018-05-26T16:56:37.356Z,29.00
2018-05-26T16:59:05.667Z,29.00
2018-05-26T17:01:35.862Z,29.00
2018-05-26T17:04:04.272Z,28.30
2018-05-26T17:06:33.840Z,29.30
2018-05-26T17:09:02.248Z,29.50
2018-05-26T17:11:33.404Z,29.20
2018-05-26T17:14:02.673Z,30.00
2018-05-26T17:16:31.051Z,30.00
2018-05-26T17:19:02.589Z,29.80
2018-05-26T17:21:31.004Z,29.40
2018-05-26T17:24:02.106Z,29.40
2018-05-26T17:26:30.375Z,29.30
2018-05-26T17:28:59.704Z,30.20
2018-05-26T17:31:27.977Z,29.50
2018-05-26T17:33:57.193Z,30.00
2018-05-26T17:36:25.400Z,29.80
2018-05-26T17:38:53.652Z,30.00
2018-05-26T17:41:22.913Z,30.10
2018-05-26T17:48:48.614Z,30.00
2018-05-26T17:51:17.628Z,30.30
2018-05-26T17:53:45.892Z,30.30
2018-05-26T17:56:15.281Z,30.50
2018-05-26T18:01:43.513Z,30.20
2018-05-26T18:04:14.122Z,30.10
2018-05-26T18:06:52.001Z,31.60
2018-05-26T18:09:24.276Z,31.60
2018-05-26T18:14:52.545Z,32.70
2018-05-26T18:17:20.794Z,33.40
2018-05-26T18:19:50.261Z,33.50
2018-05-26T18:22:18.861Z,34.40
2018-05-26T18:24:48.025Z,34.80
2018-05-26T18:27:17.209Z,35.10
2018-05-26T18:29:45.471Z,35.10
2018-05-26T18:32:13.730Z,35.60
2018-05-26T18:34:42.036Z,35.80
2018-05-26T18:37:10.440Z,36.10
2018-05-26T18:39:39.714Z,36.20
2018-05-26T18:42:08.093Z,36.40
2018-05-26T18:44:36.693Z,36.80
2018-05-26T18:47:05.695Z,37.30
2018-05-26T18:49:35.697Z,37.60
2018-05-26T18:52:04.734Z,37.80
2018-05-26T18:54:33.988Z,37.80
2018-05-26T18:57:03.054Z,38.80
2018-05-26T18:59:32.285Z,38.90
2018-05-26T19:02:01.295Z,39.20
2018-05-26T19:04:30.311Z,39.20
2018-05-26T19:06:59.401Z,39.90
2018-05-26T19:09:27.668Z,39.10
2018-05-26T19:11:57.033Z,39.60
2018-05-26T19:14:25.653Z,39.80
2018-05-26T19:16:53.901Z,40.30
2018-05-26T19:19:22.365Z,40.40
2018-05-26T19:24:51.147Z,40.60
2018-05-26T19:27:19.425Z,40.60
2018-05-26T19:29:47.844Z,41.10
2018-05-26T19:32:16.257Z,41.20
2018-05-26T19:34:46.437Z,42.50
2018-05-26T19:37:14.809Z,42.50
2018-05-26T19:39:43.076Z,42.40
2018-05-26T19:42:11.333Z,43.80
2018-05-26T19:44:39.773Z,46.00
2018-05-26T19:47:09.134Z,46.60
2018-05-26T19:49:37.424Z,46.60
2018-05-26T19:52:06.008Z,47.20
2018-05-26T19:54:34.273Z,48.10
2018-05-26T19:57:02.516Z,48.40
2018-05-26T19:59:30.760Z,46.90
2018-05-26T20:01:59.040Z,46.30
2018-05-26T20:04:28.062Z,46.80
2018-05-26T20:06:57.276Z,46.80
2018-05-26T20:09:26.699Z,48.20
2018-05-26T20:11:54.953Z,47.60
2018-05-26T20:14:23.601Z,48.20
2018-05-26T20:16:52.651Z,47.40
2018-05-26T20:19:20.951Z,47.40
2018-05-26T20:21:49.357Z,49.40
2018-05-26T20:24:18.416Z,48.20
2018-05-26T20:26:46.685Z,48.20
2018-05-26T20:29:15.693Z,50.80
2018-05-26T20:31:44.153Z,50.20
2018-05-26T20:34:12.461Z,49.80
2018-05-26T20:36:41.633Z,50.40
2018-05-26T20:39:10.172Z,51.10
2018-05-26T20:41:39.436Z,51.10
2018-05-26T20:44:07.692Z,51.10
2018-05-26T20:46:35.970Z,51.10
2018-05-26T20:49:04.265Z,52.60
2018-05-26T20:51:32.509Z,52.60
2018-05-26T20:54:01.425Z,54.10
2018-05-26T20:56:29.672Z,52.20
2018-05-26T20:58:59.006Z,52.30
2018-05-26T21:01:27.277Z,52.50
2018-05-26T21:03:55.652Z,52.30
2018-05-26T21:06:23.904Z,53.50
2018-05-26T21:08:52.406Z,55.30
2018-05-26T21:11:20.688Z,56.20
2018-05-26T21:13:49.162Z,54.30
2018-05-26T21:16:17.794Z,54.30
2018-05-26T21:18:46.040Z,54.20
2018-05-26T21:21:14.343Z,54.90
2018-05-26T21:23:42.596Z,56.50
2018-05-26T21:26:10.841Z,57.70
2018-05-26T21:28:39.137Z,57.30
2018-05-26T21:31:07.413Z,57.20
2018-05-26T21:33:35.714Z,57.50
2018-05-26T21:36:03.933Z,57.50
2018-05-26T21:38:32.526Z,56.50
2018-05-26T21:41:01.015Z,57.00
2018-05-26T21:43:29.256Z,56.90
2018-05-26T21:45:57.564Z,57.30
2018-05-26T21:48:26.028Z,58.00
2018-05-26T21:50:54.304Z,60.20
2018-05-26T21:53:22.581Z,60.10
2018-05-26T21:55:51.145Z,59.30
2018-05-26T21:58:20.160Z,61.70
2018-05-26T22:00:48.500Z,61.70
2018-05-26T22:03:17.516Z,65.40
2018-05-26T22:05:45.796Z,65.30
2018-05-26T22:08:14.437Z,67.00
2018-05-26T22:10:44.843Z,64.80
2018-05-26T22:13:13.107Z,64.70
2018-05-26T22:15:41.580Z,64.20
2018-05-26T22:18:09.899Z,64.60
2018-05-26T22:20:38.160Z,63.80
2018-05-26T22:23:06.821Z,63.40
2018-05-26T22:25:35.064Z,65.60
2018-05-26T22:28:04.958Z,63.80
2018-05-26T22:30:33.236Z,63.80
2018-05-26T22:33:01.488Z,63.40
2018-05-26T22:35:30.036Z,66.00
2018-05-26T22:37:58.316Z,68.50
2018-05-26T22:40:26.569Z,67.40
2018-05-26T22:42:55.584Z,70.70
2018-05-26T22:45:24.298Z,70.70
2018-05-26T22:47:52.813Z,70.90
2018-05-26T22:50:21.064Z,72.60
2018-05-26T22:52:49.339Z,72.30
2018-05-26T22:55:17.589Z,73.40
2018-05-26T22:57:46.612Z,74.50
2018-05-26T23:00:14.883Z,72.30
2018-05-26T23:02:43.132Z,75.70
2018-05-26T23:05:11.390Z,74.90
2018-05-26T23:07:40.484Z,76.40
2018-05-26T23:10:08.737Z,76.40
2018-05-26T23:12:37.008Z,77.10
2018-05-26T23:15:05.286Z,74.50
2018-05-26T23:17:33.519Z,76.00
2018-05-26T23:20:01.777Z,76.40
2018-05-26T23:22:30.052Z,80.50
2018-05-26T23:24:58.312Z,75.20
2018-05-26T23:27:28.503Z,77.50
2018-05-26T23:29:56.960Z,77.40
2018-05-26T23:32:25.461Z,81.30
2018-05-26T23:34:53.700Z,82.50
2018-05-26T23:37:21.975Z,81.40
2018-05-26T23:39:50.224Z,81.60
2018-05-26T23:42:18.473Z,81.30
2018-05-26T23:44:46.738Z,82.80
2018-05-26T23:47:15.882Z,81.00
2018-05-26T23:49:45.384Z,85.50
2018-05-26T23:52:13.907Z,85.50
2018-05-26T23:54:42.173Z,82.50
2018-05-26T23:57:10.419Z,79.50
2018-05-26T23:59:39.024Z,82.10
